Terminal Aerodrome Forecast
Issued by NWS Wakefield, VA

Home | Current Version | Previous Version | Text Only | Print | Product List | Glossary On
Versions: 1 2 3 4 5 6 7 8 9 10 11 12 13 14 15 16 17 18
000
FTUS41 KAKQ 021134
TAFORF
TAF
KORF 021134Z 0212/0312 20005KT P6SM SCT025 SCT080
     FM021700 02009KT P6SM BKN100 BKN200
     FM022100 05008KT P6SM BKN050 BKN100
     FM030000 05008KT 6SM BR OVC015
     FM030300 06006KT 4SM BR OVC007=

USA.gov is the U.S. government's official web portal to all federal, state and local government web resources and services.